sensor_id;sensor_type;location;lat;lon;timestamp;P1;durP1;ratioP1;P2;durP2;ratioP2
63499;SDS011;49654;51.142;14.924;2023-04-15T00:01:58;4.90;;;4.50;;
63499;SDS011;49654;51.142;14.924;2023-04-15T00:04:25;5.57;;;5.07;;
63499;SDS011;49654;51.142;14.924;2023-04-15T00:06:52;5.68;;;5.18;;
63499;SDS011;49654;51.142;14.924;2023-04-15T00:09:21;6.07;;;5.47;;
63499;SDS011;49654;51.142;14.924;2023-04-15T00:11:49;5.55;;;5.05;;
63499;SDS011;49654;51.142;14.924;2023-04-15T00:14:16;5.60;;;5.10;;
63499;SDS011;49654;51.142;14.924;2023-04-15T00:16:42;7.22;;;5.57;;
63499;SDS011;49654;51.142;14.924;2023-04-15T00:19:09;6.00;;;5.40;;
63499;SDS011;49654;51.142;14.924;2023-04-15T00:21:36;5.40;;;4.90;;
63499;SDS011;49654;51.142;14.924;2023-04-15T00:24:03;5.80;;;5.30;;
63499;SDS011;49654;51.142;14.924;2023-04-15T00:26:32;5.13;;;4.63;;
63499;SDS011;49654;51.142;14.924;2023-04-15T00:29:00;5.18;;;4.68;;
63499;SDS011;49654;51.142;14.924;2023-04-15T00:31:28;5.38;;;4.88;;
63499;SDS011;49654;51.142;14.924;2023-04-15T00:33:56;5.47;;;4.97;;
63499;SDS011;49654;51.142;14.924;2023-04-15T00:36:23;4.78;;;4.38;;
63499;SDS011;49654;51.142;14.924;2023-04-15T00:38:50;4.50;;;4.10;;
63499;SDS011;49654;51.142;14.924;2023-04-15T00:41:17;6.55;;;4.28;;
63499;SDS011;49654;51.142;14.924;2023-04-15T00:43:46;5.05;;;4.55;;
63499;SDS011;49654;51.142;14.924;2023-04-15T00:46:13;4.65;;;4.25;;
63499;SDS011;49654;51.142;14.924;2023-04-15T00:48:41;5.30;;;4.80;;
63499;SDS011;49654;51.142;14.924;2023-04-15T00:51:09;5.38;;;4.88;;
63499;SDS011;49654;51.142;14.924;2023-04-15T00:53:36;5.30;;;4.80;;
63499;SDS011;49654;51.142;14.924;2023-04-15T00:56:03;5.75;;;5.15;;
63499;SDS011;49654;51.142;14.924;2023-04-15T00:58:30;5.72;;;5.22;;
63499;SDS011;49654;51.142;14.924;2023-04-15T01:00:58;4.93;;;4.53;;
63499;SDS011;49654;51.142;14.924;2023-04-15T01:03:25;6.03;;;5.43;;
63499;SDS011;49654;51.142;14.924;2023-04-15T01:05:53;5.70;;;5.20;;
63499;SDS011;49654;51.142;14.924;2023-04-15T01:08:23;5.90;;;5.38;;
63499;SDS011;49654;51.142;14.924;2023-04-15T01:10:53;5.90;;;5.28;;
63499;SDS011;49654;51.142;14.924;2023-04-15T01:13:21;5.63;;;5.13;;
63499;SDS011;49654;51.142;14.924;2023-04-15T01:15:49;6.60;;;5.93;;
63499;SDS011;49654;51.142;14.924;2023-04-15T01:18:18;7.03;;;6.10;;
63499;SDS011;49654;51.142;14.924;2023-04-15T01:20:45;5.97;;;5.38;;
63499;SDS011;49654;51.142;14.924;2023-04-15T01:23:12;7.18;;;5.72;;
63499;SDS011;49654;51.142;14.924;2023-04-15T01:25:40;6.00;;;5.40;;
63499;SDS011;49654;51.142;14.924;2023-04-15T01:28:09;6.25;;;5.65;;
63499;SDS011;49654;51.142;14.924;2023-04-15T01:30:36;6.65;;;5.78;;
63499;SDS011;49654;51.142;14.924;2023-04-15T01:33:03;6.68;;;5.97;;
63499;SDS011;49654;51.142;14.924;2023-04-15T01:35:31;6.10;;;5.50;;
63499;SDS011;49654;51.142;14.924;2023-04-15T01:37:59;8.40;;;5.40;;
63499;SDS011;49654;51.142;14.924;2023-04-15T01:40:30;5.60;;;5.10;;
63499;SDS011;49654;51.142;14.924;2023-04-15T01:42:59;6.53;;;5.82;;
63499;SDS011;49654;51.142;14.924;2023-04-15T01:45:26;5.70;;;4.97;;
63499;SDS011;49654;51.142;14.924;2023-04-15T01:47:53;5.30;;;4.80;;
63499;SDS011;49654;51.142;14.924;2023-04-15T01:50:20;5.88;;;5.38;;
63499;SDS011;49654;51.142;14.924;2023-04-15T01:52:47;5.80;;;5.20;;
63499;SDS011;49654;51.142;14.924;2023-04-15T01:55:14;5.80;;;5.20;;
63499;SDS011;49654;51.142;14.924;2023-04-15T01:57:41;5.68;;;5.18;;
63499;SDS011;49654;51.142;14.924;2023-04-15T02:00:10;6.10;;;5.32;;
63499;SDS011;49654;51.142;14.924;2023-04-15T02:02:37;6.57;;;5.40;;
63499;SDS011;49654;51.142;14.924;2023-04-15T02:05:04;6.55;;;5.65;;
63499;SDS011;49654;51.142;14.924;2023-04-15T02:07:32;6.88;;;5.85;;
63499;SDS011;49654;51.142;14.924;2023-04-15T02:09:59;6.65;;;5.95;;
63499;SDS011;49654;51.142;14.924;2023-04-15T02:12:25;6.40;;;5.38;;
63499;SDS011;49654;51.142;14.924;2023-04-15T02:14:52;5.50;;;5.00;;
63499;SDS011;49654;51.142;14.924;2023-04-15T02:17:21;6.63;;;5.88;;
63499;SDS011;49654;51.142;14.924;2023-04-15T02:19:48;7.40;;;6.05;;
63499;SDS011;49654;51.142;14.924;2023-04-15T02:22:15;6.82;;;5.97;;
63499;SDS011;49654;51.142;14.924;2023-04-15T02:24:43;7.55;;;6.32;;
63499;SDS011;49654;51.142;14.924;2023-04-15T02:27:10;9.02;;;6.93;;
63499;SDS011;49654;51.142;14.924;2023-04-15T02:29:41;8.25;;;7.07;;
63499;SDS011;49654;51.142;14.924;2023-04-15T02:32:08;8.80;;;7.72;;
63499;SDS011;49654;51.142;14.924;2023-04-15T02:34:38;8.13;;;7.22;;
63499;SDS011;49654;51.142;14.924;2023-04-15T02:37:07;8.90;;;8.00;;
63499;SDS011;49654;51.142;14.924;2023-04-15T02:39:34;9.38;;;8.38;;
63499;SDS011;49654;51.142;14.924;2023-04-15T02:42:01;11.00;;;8.90;;
63499;SDS011;49654;51.142;14.924;2023-04-15T02:44:29;9.70;;;7.93;;
63499;SDS011;49654;51.142;14.924;2023-04-15T02:46:57;10.13;;;8.90;;
63499;SDS011;49654;51.142;14.924;2023-04-15T02:49:24;9.52;;;8.52;;
63499;SDS011;49654;51.142;14.924;2023-04-15T02:51:52;10.57;;;9.45;;
63499;SDS011;49654;51.142;14.924;2023-04-15T02:54:20;11.35;;;9.40;;
63499;SDS011;49654;51.142;14.924;2023-04-15T02:56:48;10.38;;;8.98;;
63499;SDS011;49654;51.142;14.924;2023-04-15T02:59:15;11.25;;;9.73;;
63499;SDS011;49654;51.142;14.924;2023-04-15T03:01:42;12.20;;;10.52;;
63499;SDS011;49654;51.142;14.924;2023-04-15T03:04:09;12.13;;;10.82;;
63499;SDS011;49654;51.142;14.924;2023-04-15T03:06:36;12.43;;;10.32;;
63499;SDS011;49654;51.142;14.924;2023-04-15T03:09:04;12.10;;;10.80;;
63499;SDS011;49654;51.142;14.924;2023-04-15T03:11:31;13.10;;;11.45;;
63499;SDS011;49654;51.142;14.924;2023-04-15T03:13:58;12.25;;;10.73;;
63499;SDS011;49654;51.142;14.924;2023-04-15T03:16:25;12.07;;;10.80;;
63499;SDS011;49654;51.142;14.924;2023-04-15T03:18:52;13.15;;;11.75;;
63499;SDS011;49654;51.142;14.924;2023-04-15T03:21:19;13.73;;;12.00;;
63499;SDS011;49654;51.142;14.924;2023-04-15T03:23:47;14.25;;;11.90;;
63499;SDS011;49654;51.142;14.924;2023-04-15T03:26:24;14.15;;;12.65;;
63499;SDS011;49654;51.142;14.924;2023-04-15T03:28:52;14.20;;;11.65;;
63499;SDS011;49654;51.142;14.924;2023-04-15T03:31:19;10.95;;;9.30;;
63499;SDS011;49654;51.142;14.924;2023-04-15T03:33:46;11.73;;;10.23;;
63499;SDS011;49654;51.142;14.924;2023-04-15T03:36:13;8.50;;;7.63;;
63499;SDS011;49654;51.142;14.924;2023-04-15T03:38:40;4.80;;;4.40;;
63499;SDS011;49654;51.142;14.924;2023-04-15T03:41:07;4.65;;;4.03;;
63499;SDS011;49654;51.142;14.924;2023-04-15T03:43:36;3.45;;;3.15;;
63499;SDS011;49654;51.142;14.924;2023-04-15T03:46:03;3.30;;;2.90;;
63499;SDS011;49654;51.142;14.924;2023-04-15T03:48:30;3.53;;;3.00;;
63499;SDS011;49654;51.142;14.924;2023-04-15T03:50:57;4.43;;;2.90;;
63499;SDS011;49654;51.142;14.924;2023-04-15T03:53:24;3.45;;;1.90;;
63499;SDS011;49654;51.142;14.924;2023-04-15T03:55:51;2.00;;;1.90;;
63499;SDS011;49654;51.142;14.924;2023-04-15T03:58:18;2.70;;;1.50;;
63499;SDS011;49654;51.142;14.924;2023-04-15T04:00:46;2.20;;;1.90;;
63499;SDS011;49654;51.142;14.924;2023-04-15T04:03:13;2.75;;;2.30;;
63499;SDS011;49654;51.142;14.924;2023-04-15T04:05:40;2.45;;;2.25;;
63499;SDS011;49654;51.142;14.924;2023-04-15T04:08:08;3.10;;;1.90;;
63499;SDS011;49654;51.142;14.924;2023-04-15T04:10:38;1.50;;;1.40;;
63499;SDS011;49654;51.142;14.924;2023-04-15T04:13:05;2.90;;;1.70;;
63499;SDS011;49654;51.142;14.924;2023-04-15T04:15:32;1.60;;;1.45;;
63499;SDS011;49654;51.142;14.924;2023-04-15T04:18:00;1.50;;;1.40;;
63499;SDS011;49654;51.142;14.924;2023-04-15T04:20:28;3.65;;;1.80;;
63499;SDS011;49654;51.142;14.924;2023-04-15T04:22:56;1.80;;;1.35;;
63499;SDS011;49654;51.142;14.924;2023-04-15T04:25:23;1.67;;;1.58;;
63499;SDS011;49654;51.142;14.924;2023-04-15T04:27:50;1.67;;;1.58;;
63499;SDS011;49654;51.142;14.924;2023-04-15T04:30:17;2.10;;;1.70;;
63499;SDS011;49654;51.142;14.924;2023-04-15T04:32:44;2.00;;;1.83;;
63499;SDS011;49654;51.142;14.924;2023-04-15T04:35:12;1.70;;;1.60;;
63499;SDS011;49654;51.142;14.924;2023-04-15T04:37:39;1.80;;;1.55;;
63499;SDS011;49654;51.142;14.924;2023-04-15T04:40:06;2.78;;;1.60;;
63499;SDS011;49654;51.142;14.924;2023-04-15T04:42:35;1.60;;;1.30;;
63499;SDS011;49654;51.142;14.924;2023-04-15T04:45:02;1.60;;;1.50;;
63499;SDS011;49654;51.142;14.924;2023-04-15T04:47:29;1.58;;;1.48;;
63499;SDS011;49654;51.142;14.924;2023-04-15T04:49:56;1.85;;;1.50;;
63499;SDS011;49654;51.142;14.924;2023-04-15T04:52:24;1.70;;;1.60;;
63499;SDS011;49654;51.142;14.924;2023-04-15T04:54:51;2.40;;;1.70;;
63499;SDS011;49654;51.142;14.924;2023-04-15T04:57:18;1.75;;;1.65;;
63499;SDS011;49654;51.142;14.924;2023-04-15T04:59:45;1.65;;;1.55;;
63499;SDS011;49654;51.142;14.924;2023-04-15T05:02:12;1.77;;;1.67;;
63499;SDS011;49654;51.142;14.924;2023-04-15T05:04:39;2.22;;;2.03;;
63499;SDS011;49654;51.142;14.924;2023-04-15T05:07:06;2.20;;;1.98;;
63499;SDS011;49654;51.142;14.924;2023-04-15T05:09:34;1.80;;;1.70;;
63499;SDS011;49654;51.142;14.924;2023-04-15T05:12:01;3.42;;;3.08;;
63499;SDS011;49654;51.142;14.924;2023-04-15T05:14:29;2.38;;;2.17;;
63499;SDS011;49654;51.142;14.924;2023-04-15T05:16:56;2.50;;;2.30;;
63499;SDS011;49654;51.142;14.924;2023-04-15T05:19:23;2.47;;;2.28;;
63499;SDS011;49654;51.142;14.924;2023-04-15T05:21:50;2.50;;;2.20;;
63499;SDS011;49654;51.142;14.924;2023-04-15T05:24:17;2.90;;;2.60;;
63499;SDS011;49654;51.142;14.924;2023-04-15T05:26:45;2.58;;;2.38;;
63499;SDS011;49654;51.142;14.924;2023-04-15T05:29:12;2.50;;;2.30;;
63499;SDS011;49654;51.142;14.924;2023-04-15T05:31:39;2.50;;;2.30;;
63499;SDS011;49654;51.142;14.924;2023-04-15T05:34:06;2.42;;;2.22;;
63499;SDS011;49654;51.142;14.924;2023-04-15T05:36:33;2.03;;;1.92;;
63499;SDS011;49654;51.142;14.924;2023-04-15T05:39:00;2.42;;;1.90;;
63499;SDS011;49654;51.142;14.924;2023-04-15T05:41:28;2.90;;;2.13;;
63499;SDS011;49654;51.142;14.924;2023-04-15T05:43:56;2.00;;;1.90;;
63499;SDS011;49654;51.142;14.924;2023-04-15T05:46:23;2.55;;;2.35;;
63499;SDS011;49654;51.142;14.924;2023-04-15T05:48:50;2.60;;;2.40;;
63499;SDS011;49654;51.142;14.924;2023-04-15T05:51:17;2.70;;;2.50;;
63499;SDS011;49654;51.142;14.924;2023-04-15T05:53:45;3.55;;;2.72;;
63499;SDS011;49654;51.142;14.924;2023-04-15T05:56:12;2.70;;;2.50;;
63499;SDS011;49654;51.142;14.924;2023-04-15T05:58:39;5.15;;;3.00;;
63499;SDS011;49654;51.142;14.924;2023-04-15T06:01:07;3.42;;;2.80;;
63499;SDS011;49654;51.142;14.924;2023-04-15T06:03:34;3.35;;;3.05;;
63499;SDS011;49654;51.142;14.924;2023-04-15T06:06:01;3.45;;;3.00;;
63499;SDS011;49654;51.142;14.924;2023-04-15T06:08:28;3.33;;;3.03;;
63499;SDS011;49654;51.142;14.924;2023-04-15T06:10:55;3.28;;;2.97;;
63499;SDS011;49654;51.142;14.924;2023-04-15T06:13:23;4.15;;;3.65;;
63499;SDS011;49654;51.142;14.924;2023-04-15T06:15:50;4.13;;;3.72;;
63499;SDS011;49654;51.142;14.924;2023-04-15T06:18:19;4.18;;;3.78;;
63499;SDS011;49654;51.142;14.924;2023-04-15T06:20:46;4.07;;;3.67;;
63499;SDS011;49654;51.142;14.924;2023-04-15T06:23:13;4.93;;;4.53;;
63499;SDS011;49654;51.142;14.924;2023-04-15T06:25:40;4.68;;;4.28;;
63499;SDS011;49654;51.142;14.924;2023-04-15T06:28:08;4.53;;;4.13;;
63499;SDS011;49654;51.142;14.924;2023-04-15T06:30:35;4.13;;;3.83;;
63499;SDS011;49654;51.142;14.924;2023-04-15T06:33:02;4.10;;;3.70;;
63499;SDS011;49654;51.142;14.924;2023-04-15T06:35:32;5.15;;;4.45;;
63499;SDS011;49654;51.142;14.924;2023-04-15T06:38:02;5.72;;;5.22;;
63499;SDS011;49654;51.142;14.924;2023-04-15T06:40:29;5.20;;;4.80;;
63499;SDS011;49654;51.142;14.924;2023-04-15T06:42:56;5.65;;;5.15;;
63499;SDS011;49654;51.142;14.924;2023-04-15T06:45:23;5.75;;;5.22;;
63499;SDS011;49654;51.142;14.924;2023-04-15T06:47:51;5.53;;;5.03;;
63499;SDS011;49654;51.142;14.924;2023-04-15T06:50:27;7.47;;;6.78;;
63499;SDS011;49654;51.142;14.924;2023-04-15T06:52:58;5.95;;;5.45;;
63499;SDS011;49654;51.142;14.924;2023-04-15T06:55:25;5.68;;;5.15;;
63499;SDS011;49654;51.142;14.924;2023-04-15T06:57:52;5.57;;;5.07;;
63499;SDS011;49654;51.142;14.924;2023-04-15T07:05:31;5.85;;;5.25;;
63499;SDS011;49654;51.142;14.924;2023-04-15T07:08:03;6.07;;;5.57;;
63499;SDS011;49654;51.142;14.924;2023-04-15T07:10:31;5.53;;;5.03;;
63499;SDS011;49654;51.142;14.924;2023-04-15T07:12:58;6.60;;;5.90;;
63499;SDS011;49654;51.142;14.924;2023-04-15T07:15:26;5.75;;;5.25;;
63499;SDS011;49654;51.142;14.924;2023-04-15T07:17:55;5.13;;;4.72;;
63499;SDS011;49654;51.142;14.924;2023-04-15T07:20:25;5.32;;;4.82;;
63499;SDS011;49654;51.142;14.924;2023-04-15T07:22:52;5.50;;;5.00;;
63499;SDS011;49654;51.142;14.924;2023-04-15T07:25:24;6.88;;;5.38;;
63499;SDS011;49654;51.142;14.924;2023-04-15T07:27:52;4.95;;;4.47;;
63499;SDS011;49654;51.142;14.924;2023-04-15T07:30:35;5.05;;;4.57;;
63499;SDS011;49654;51.142;14.924;2023-04-15T07:33:02;4.85;;;4.45;;
63499;SDS011;49654;51.142;14.924;2023-04-15T07:35:30;5.38;;;4.28;;
63499;SDS011;49654;51.142;14.924;2023-04-15T07:37:57;4.05;;;3.75;;
63499;SDS011;49654;51.142;14.924;2023-04-15T07:40:26;3.97;;;3.67;;
63499;SDS011;49654;51.142;14.924;2023-04-15T07:42:53;4.97;;;3.92;;
63499;SDS011;49654;51.142;14.924;2023-04-15T07:45:21;4.35;;;3.95;;
63499;SDS011;49654;51.142;14.924;2023-04-15T07:47:48;4.40;;;4.00;;
63499;SDS011;49654;51.142;14.924;2023-04-15T07:50:15;4.00;;;3.70;;
63499;SDS011;49654;51.142;14.924;2023-04-15T07:52:44;4.82;;;4.43;;
63499;SDS011;49654;51.142;14.924;2023-04-15T07:55:11;5.03;;;4.53;;
63499;SDS011;49654;51.142;14.924;2023-04-15T07:57:39;4.80;;;3.92;;
63499;SDS011;49654;51.142;14.924;2023-04-15T08:00:07;5.75;;;4.40;;
63499;SDS011;49654;51.142;14.924;2023-04-15T08:02:34;4.10;;;3.70;;
63499;SDS011;49654;51.142;14.924;2023-04-15T08:05:01;3.60;;;3.30;;
63499;SDS011;49654;51.142;14.924;2023-04-15T08:07:29;4.07;;;3.65;;
63499;SDS011;49654;51.142;14.924;2023-04-15T08:09:57;4.22;;;3.83;;
63499;SDS011;49654;51.142;14.924;2023-04-15T08:12:24;4.30;;;3.90;;
63499;SDS011;49654;51.142;14.924;2023-04-15T08:14:52;3.88;;;3.47;;
63499;SDS011;49654;51.142;14.924;2023-04-15T08:17:21;3.75;;;3.45;;
63499;SDS011;49654;51.142;14.924;2023-04-15T08:19:48;3.53;;;3.22;;
63499;SDS011;49654;51.142;14.924;2023-04-15T08:22:15;3.40;;;3.10;;
63499;SDS011;49654;51.142;14.924;2023-04-15T08:24:42;3.08;;;2.88;;
63499;SDS011;49654;51.142;14.924;2023-04-15T08:27:09;3.28;;;2.97;;
63499;SDS011;49654;51.142;14.924;2023-04-15T08:29:36;3.20;;;2.90;;
63499;SDS011;49654;51.142;14.924;2023-04-15T08:32:05;4.93;;;3.00;;
63499;SDS011;49654;51.142;14.924;2023-04-15T08:34:32;4.20;;;3.10;;
63499;SDS011;49654;51.142;14.924;2023-04-15T08:36:59;3.20;;;2.92;;
63499;SDS011;49654;51.142;14.924;2023-04-15T08:39:26;3.00;;;2.78;;
63499;SDS011;49654;51.142;14.924;2023-04-15T08:41:55;3.17;;;2.80;;
63499;SDS011;49654;51.142;14.924;2023-04-15T08:44:27;2.67;;;2.47;;
63499;SDS011;49654;51.142;14.924;2023-04-15T08:46:56;3.17;;;2.83;;
63499;SDS011;49654;51.142;14.924;2023-04-15T08:49:28;3.35;;;2.85;;
63499;SDS011;49654;51.142;14.924;2023-04-15T08:51:55;2.88;;;2.63;;
63499;SDS011;49654;51.142;14.924;2023-04-15T08:54:24;2.85;;;2.65;;
63499;SDS011;49654;51.142;14.924;2023-04-15T08:56:52;3.38;;;2.70;;
63499;SDS011;49654;51.142;14.924;2023-04-15T08:59:20;3.22;;;2.92;;
63499;SDS011;49654;51.142;14.924;2023-04-15T09:01:47;2.80;;;2.60;;
63499;SDS011;49654;51.142;14.924;2023-04-15T09:04:15;2.65;;;2.40;;
63499;SDS011;49654;51.142;14.924;2023-04-15T09:06:44;3.72;;;2.15;;
63499;SDS011;49654;51.142;14.924;2023-04-15T09:09:11;2.60;;;2.40;;
63499;SDS011;49654;51.142;14.924;2023-04-15T09:11:38;3.08;;;2.40;;
63499;SDS011;49654;51.142;14.924;2023-04-15T09:14:05;2.20;;;2.00;;
63499;SDS011;49654;51.142;14.924;2023-04-15T09:19:25;2.47;;;1.92;;
63499;SDS011;49654;51.142;14.924;2023-04-15T09:21:54;1.70;;;1.60;;
63499;SDS011;49654;51.142;14.924;2023-04-15T09:24:22;1.88;;;1.77;;
63499;SDS011;49654;51.142;14.924;2023-04-15T09:26:51;2.00;;;1.80;;
63499;SDS011;49654;51.142;14.924;2023-04-15T09:29:19;2.30;;;1.77;;
63499;SDS011;49654;51.142;14.924;2023-04-15T09:31:51;1.95;;;1.77;;
63499;SDS011;49654;51.142;14.924;2023-04-15T09:34:18;1.90;;;1.70;;
63499;SDS011;49654;51.142;14.924;2023-04-15T09:36:51;1.92;;;1.45;;
63499;SDS011;49654;51.142;14.924;2023-04-15T09:39:21;1.60;;;1.50;;
63499;SDS011;49654;51.142;14.924;2023-04-15T09:42:02;3.00;;;1.60;;
63499;SDS011;49654;51.142;14.924;2023-04-15T09:44:31;2.47;;;1.98;;
63499;SDS011;49654;51.142;14.924;2023-04-15T09:46:58;2.38;;;1.70;;
63499;SDS011;49654;51.142;14.924;2023-04-15T09:49:25;2.55;;;1.95;;
63499;SDS011;49654;51.142;14.924;2023-04-15T09:51:56;1.58;;;1.35;;
63499;SDS011;49654;51.142;14.924;2023-04-15T09:54:25;1.48;;;1.38;;
63499;SDS011;49654;51.142;14.924;2023-04-15T09:57:03;1.65;;;1.55;;
63499;SDS011;49654;51.142;14.924;2023-04-15T09:59:31;1.80;;;1.40;;
63499;SDS011;49654;51.142;14.924;2023-04-15T10:01:58;1.88;;;1.60;;
63499;SDS011;49654;51.142;14.924;2023-04-15T10:04:26;1.20;;;1.10;;
63499;SDS011;49654;51.142;14.924;2023-04-15T10:06:54;1.30;;;1.20;;
63499;SDS011;49654;51.142;14.924;2023-04-15T10:09:22;1.13;;;1.02;;
63499;SDS011;49654;51.142;14.924;2023-04-15T10:11:51;2.28;;;1.50;;
63499;SDS011;49654;51.142;14.924;2023-04-15T10:14:18;1.58;;;1.45;;
63499;SDS011;49654;51.142;14.924;2023-04-15T10:16:46;1.88;;;1.17;;
63499;SDS011;49654;51.142;14.924;2023-04-15T10:19:14;1.20;;;1.10;;
63499;SDS011;49654;51.142;14.924;2023-04-15T10:21:44;1.40;;;1.20;;
63499;SDS011;49654;51.142;14.924;2023-04-15T10:24:11;1.50;;;1.10;;
63499;SDS011;49654;51.142;14.924;2023-04-15T10:26:38;2.30;;;1.20;;
63499;SDS011;49654;51.142;14.924;2023-04-15T10:29:07;1.20;;;1.00;;
63499;SDS011;49654;51.142;14.924;2023-04-15T10:31:36;1.08;;;0.98;;
63499;SDS011;49654;51.142;14.924;2023-04-15T10:34:04;2.85;;;1.20;;
63499;SDS011;49654;51.142;14.924;2023-04-15T10:36:31;1.65;;;1.55;;
63499;SDS011;49654;51.142;14.924;2023-04-15T10:38:59;2.25;;;1.50;;
63499;SDS011;49654;51.142;14.924;2023-04-15T10:41:26;1.45;;;1.10;;
63499;SDS011;49654;51.142;14.924;2023-04-15T10:43:56;1.20;;;1.10;;
63499;SDS011;49654;51.142;14.924;2023-04-15T10:46:34;1.50;;;1.33;;
63499;SDS011;49654;51.142;14.924;2023-04-15T10:49:06;1.27;;;1.17;;
63499;SDS011;49654;51.142;14.924;2023-04-15T10:51:34;1.02;;;0.95;;
63499;SDS011;49654;51.142;14.924;2023-04-15T10:54:07;2.72;;;1.20;;
63499;SDS011;49654;51.142;14.924;2023-04-15T10:56:35;2.38;;;1.33;;
63499;SDS011;49654;51.142;14.924;2023-04-15T10:59:03;1.30;;;1.20;;
63499;SDS011;49654;51.142;14.924;2023-04-15T11:01:52;1.50;;;1.40;;
63499;SDS011;49654;51.142;14.924;2023-04-15T11:07:32;2.95;;;1.58;;
63499;SDS011;49654;51.142;14.924;2023-04-15T11:10:00;1.63;;;1.30;;
63499;SDS011;49654;51.142;14.924;2023-04-15T11:12:32;2.00;;;1.30;;
63499;SDS011;49654;51.142;14.924;2023-04-15T11:17:54;1.20;;;1.00;;
63499;SDS011;49654;51.142;14.924;2023-04-15T11:20:22;1.85;;;1.45;;
63499;SDS011;49654;51.142;14.924;2023-04-15T11:22:49;3.47;;;1.40;;
63499;SDS011;49654;51.142;14.924;2023-04-15T11:25:23;1.63;;;1.30;;
63499;SDS011;49654;51.142;14.924;2023-04-15T11:27:51;1.35;;;1.25;;
63499;SDS011;49654;51.142;14.924;2023-04-15T11:30:20;1.92;;;1.58;;
63499;SDS011;49654;51.142;14.924;2023-04-15T11:32:48;1.92;;;1.40;;
63499;SDS011;49654;51.142;14.924;2023-04-15T11:35:18;1.80;;;1.40;;
63499;SDS011;49654;51.142;14.924;2023-04-15T11:37:45;2.17;;;1.50;;
63499;SDS011;49654;51.142;14.924;2023-04-15T11:40:14;2.83;;;1.52;;
63499;SDS011;49654;51.142;14.924;2023-04-15T11:42:42;1.73;;;1.30;;
63499;SDS011;49654;51.142;14.924;2023-04-15T11:45:10;1.70;;;1.50;;
63499;SDS011;49654;51.142;14.924;2023-04-15T11:47:39;1.23;;;1.13;;
63499;SDS011;49654;51.142;14.924;2023-04-15T11:50:13;1.45;;;1.33;;
63499;SDS011;49654;51.142;14.924;2023-04-15T11:52:42;1.90;;;1.63;;
63499;SDS011;49654;51.142;14.924;2023-04-15T11:55:18;2.72;;;1.42;;
63499;SDS011;49654;51.142;14.924;2023-04-15T11:57:45;2.05;;;1.40;;
63499;SDS011;49654;51.142;14.924;2023-04-15T12:00:12;1.33;;;1.20;;
63499;SDS011;49654;51.142;14.924;2023-04-15T12:02:41;2.13;;;1.40;;
63499;SDS011;49654;51.142;14.924;2023-04-15T12:05:08;2.72;;;1.60;;
63499;SDS011;49654;51.142;14.924;2023-04-15T12:10:35;2.08;;;1.65;;
63499;SDS011;49654;51.142;14.924;2023-04-15T12:13:05;2.47;;;1.52;;
63499;SDS011;49654;51.142;14.924;2023-04-15T12:15:32;3.15;;;2.20;;
63499;SDS011;49654;51.142;14.924;2023-04-15T12:17:59;1.80;;;1.55;;
63499;SDS011;49654;51.142;14.924;2023-04-15T12:20:26;1.73;;;1.63;;
63499;SDS011;49654;51.142;14.924;2023-04-15T12:22:52;17.77;;;12.30;;
63499;SDS011;49654;51.142;14.924;2023-04-15T12:25:32;2.15;;;1.85;;
63499;SDS011;49654;51.142;14.924;2023-04-15T12:28:00;1.70;;;1.60;;
63499;SDS011;49654;51.142;14.924;2023-04-15T12:30:27;1.90;;;1.80;;
63499;SDS011;49654;51.142;14.924;2023-04-15T12:32:54;1.90;;;1.70;;
63499;SDS011;49654;51.142;14.924;2023-04-15T12:35:21;2.03;;;1.83;;
63499;SDS011;49654;51.142;14.924;2023-04-15T12:37:48;2.58;;;1.83;;
63499;SDS011;49654;51.142;14.924;2023-04-15T12:40:17;1.65;;;1.55;;
63499;SDS011;49654;51.142;14.924;2023-04-15T12:42:46;1.88;;;1.75;;
63499;SDS011;49654;51.142;14.924;2023-04-15T12:45:13;2.35;;;1.70;;
63499;SDS011;49654;51.142;14.924;2023-04-15T12:47:40;1.70;;;1.60;;
63499;SDS011;49654;51.142;14.924;2023-04-15T12:50:07;1.60;;;1.50;;
63499;SDS011;49654;51.142;14.924;2023-04-15T12:52:34;2.42;;;2.22;;
63499;SDS011;49654;51.142;14.924;2023-04-15T12:55:01;1.60;;;1.50;;
63499;SDS011;49654;51.142;14.924;2023-04-15T12:57:28;8.05;;;7.03;;
63499;SDS011;49654;51.142;14.924;2023-04-15T12:59:56;3.40;;;1.92;;
63499;SDS011;49654;51.142;14.924;2023-04-15T13:02:23;2.22;;;1.92;;
63499;SDS011;49654;51.142;14.924;2023-04-15T13:04:53;1.73;;;1.60;;
63499;SDS011;49654;51.142;14.924;2023-04-15T13:07:20;1.77;;;1.58;;
63499;SDS011;49654;51.142;14.924;2023-04-15T13:09:47;2.10;;;1.90;;
63499;SDS011;49654;51.142;14.924;2023-04-15T13:12:26;2.30;;;1.92;;
63499;SDS011;49654;51.142;14.924;2023-04-15T13:30:36;2.20;;;2.00;;
63499;SDS011;49654;51.142;14.924;2023-04-15T13:33:03;1.63;;;1.52;;
63499;SDS011;49654;51.142;14.924;2023-04-15T13:35:30;2.90;;;2.08;;
63499;SDS011;49654;51.142;14.924;2023-04-15T13:37:58;2.63;;;2.03;;
63499;SDS011;49654;51.142;14.924;2023-04-15T13:40:25;2.13;;;1.92;;
63499;SDS011;49654;51.142;14.924;2023-04-15T13:42:52;3.22;;;2.92;;
63499;SDS011;49654;51.142;14.924;2023-04-15T13:45:19;4.88;;;4.47;;
63499;SDS011;49654;51.142;14.924;2023-04-15T13:47:47;2.72;;;2.53;;
63499;SDS011;49654;51.142;14.924;2023-04-15T13:50:14;10.35;;;8.18;;
63499;SDS011;49654;51.142;14.924;2023-04-15T13:52:41;2.17;;;1.98;;
63499;SDS011;49654;51.142;14.924;2023-04-15T13:55:08;2.50;;;2.30;;
63499;SDS011;49654;51.142;14.924;2023-04-15T13:57:35;2.30;;;2.10;;
63499;SDS011;49654;51.142;14.924;2023-04-15T14:00:03;4.30;;;3.90;;
63499;SDS011;49654;51.142;14.924;2023-04-15T14:02:30;2.03;;;1.85;;
63499;SDS011;49654;51.142;14.924;2023-04-15T14:04:58;3.13;;;2.67;;
63499;SDS011;49654;51.142;14.924;2023-04-15T14:07:26;3.55;;;2.63;;
63499;SDS011;49654;51.142;14.924;2023-04-15T14:09:55;5.30;;;4.75;;
63499;SDS011;49654;51.142;14.924;2023-04-15T14:12:22;6.63;;;5.55;;
63499;SDS011;49654;51.142;14.924;2023-04-15T14:14:49;2.17;;;1.98;;
63499;SDS011;49654;51.142;14.924;2023-04-15T14:17:15;6.75;;;5.95;;
63499;SDS011;49654;51.142;14.924;2023-04-15T14:19:42;2.75;;;2.38;;
63499;SDS011;49654;51.142;14.924;2023-04-15T14:22:11;2.08;;;1.88;;
63499;SDS011;49654;51.142;14.924;2023-04-15T14:24:37;1.80;;;1.65;;
63499;SDS011;49654;51.142;14.924;2023-04-15T14:27:05;1.73;;;1.63;;
63499;SDS011;49654;51.142;14.924;2023-04-15T14:29:33;2.10;;;1.58;;
63499;SDS011;49654;51.142;14.924;2023-04-15T14:32:00;2.05;;;1.85;;
63499;SDS011;49654;51.142;14.924;2023-04-15T14:34:27;6.03;;;5.40;;
63499;SDS011;49654;51.142;14.924;2023-04-15T14:36:53;3.13;;;1.88;;
63499;SDS011;49654;51.142;14.924;2023-04-15T14:39:22;9.85;;;8.95;;
63499;SDS011;49654;51.142;14.924;2023-04-15T14:41:49;2.00;;;1.80;;
63499;SDS011;49654;51.142;14.924;2023-04-15T14:44:15;2.50;;;2.00;;
63499;SDS011;49654;51.142;14.924;2023-04-15T14:46:42;2.00;;;1.80;;
63499;SDS011;49654;51.142;14.924;2023-04-15T14:49:09;2.00;;;1.80;;
63499;SDS011;49654;51.142;14.924;2023-04-15T14:51:36;2.03;;;1.77;;
63499;SDS011;49654;51.142;14.924;2023-04-15T14:54:03;2.53;;;1.75;;
63499;SDS011;49654;51.142;14.924;2023-04-15T14:56:31;2.22;;;2.00;;
63499;SDS011;49654;51.142;14.924;2023-04-15T14:58:58;2.28;;;1.85;;
63499;SDS011;49654;51.142;14.924;2023-04-15T15:01:25;1.38;;;1.27;;
63499;SDS011;49654;51.142;14.924;2023-04-15T15:03:52;3.35;;;2.10;;
63499;SDS011;49654;51.142;14.924;2023-04-15T15:06:19;1.50;;;1.40;;
63499;SDS011;49654;51.142;14.924;2023-04-15T15:08:46;1.80;;;1.63;;
63499;SDS011;49654;51.142;14.924;2023-04-15T15:11:14;2.72;;;2.47;;